Time;durP1;ratioP1;P1;durP2;ratioP2;P2;SDS_P1;SDS_P2;PMS_P1;PMS_P2;Temp;Humidity;BMP_temperature;BMP_pressure;BME280_temperature;BME280_humidity;BME280_pressure;Samples;Min_cycle;Max_cycle;Signal;HPM_P1;HPM_P2
2023/02/27 00:05:07;;;;;;;2.17;1.52;;;;;;;-5.22;100.00;99220.03;15305684;19;20355;-79
2023/02/27 00:10:32;;;;;;;2.30;1.48;;;;;;;-5.26;100.00;99224.50;15306511;19;20003;-79
2023/02/27 00:15:59;;;;;;;2.53;1.70;;;;;;;-5.35;100.00;99220.34;15338941;19;20354;-79
2023/02/27 00:21:24;;;;;;;2.35;1.60;;;;;;;-5.41;100.00;99217.91;15305045;19;20057;-78
2023/02/27 00:26:48;;;;;;;2.05;1.42;;;;;;;-5.41;100.00;99217.91;15303512;19;20082;-78
2023/02/27 00:32:16;;;;;;;2.45;1.40;;;;;;;-5.24;100.00;99211.34;15301752;19;20031;-78
2023/02/27 00:37:56;;;;;;;3.15;1.40;;;;;;;-5.12;100.00;99216.25;15312636;19;20010;-78
2023/02/27 00:43:21;;;;;;;1.67;1.30;;;;;;;-5.24;100.00;99211.34;15340775;19;20070;-78
2023/02/27 00:48:48;;;;;;;1.88;1.27;;;;;;;-5.28;100.00;99216.69;15291674;19;20070;-77
2023/02/27 00:54:13;;;;;;;2.95;1.50;;;;;;;-5.36;100.00;99210.78;15296319;19;20018;-77
2023/02/27 00:59:37;;;;;;;2.63;1.50;;;;;;;-5.39;100.00;99213.50;15299030;19;20025;-78
2023/02/27 01:05:11;;;;;;;2.72;1.50;;;;;;;-5.44;100.00;99211.00;15294612;19;20018;-78
2023/02/27 01:10:36;;;;;;;2.70;1.80;;;;;;;-5.46;100.00;99217.16;15297329;19;20025;-77
2023/02/27 01:16:01;;;;;;;2.42;1.58;;;;;;;-5.46;100.00;99215.41;15291249;19;20015;-77
2023/02/27 01:21:29;;;;;;;3.53;2.10;;;;;;;-5.45;100.00;99216.25;15294803;19;20373;-78
2023/02/27 01:26:54;;;;;;;3.30;1.63;;;;;;;-5.43;100.00;99219.72;15296159;19;20358;-80
2023/02/27 01:32:20;;;;;;;5.57;1.92;;;;;;;-5.43;100.00;99222.34;15298296;19;20039;-79
2023/02/27 01:37:47;;;;;;;3.75;1.73;;;;;;;-5.48;100.00;99230.34;15298376;19;20017;-79
2023/02/27 01:43:16;;;;;;;4.40;2.05;;;;;;;-5.54;100.00;99219.13;15298189;19;20039;-79
2023/02/27 01:48:46;;;;;;;2.03;1.50;;;;;;;-5.55;100.00;99222.66;15310406;19;20029;-79
2023/02/27 01:54:17;;;;;;;2.30;1.67;;;;;;;-5.55;100.00;99227.91;15316051;19;20069;-79
2023/02/27 01:59:42;;;;;;;2.35;1.50;;;;;;;-5.30;100.00;99221.09;15316486;19;20011;-77
2023/02/27 02:05:09;;;;;;;3.40;1.60;;;;;;;-4.98;100.00;99221.13;15312757;19;20043;-79
2023/02/27 02:10:38;;;;;;;2.03;1.42;;;;;;;-5.00;100.00;99213.25;15310272;19;20849;-78
2023/02/27 02:16:16;;;;;;;3.25;1.30;;;;;;;-4.92;100.00;99217.44;15312631;19;20423;-79
2023/02/27 02:22:16;;;;;;;2.88;1.90;;;;;;;-4.97;100.00;99212.34;15308668;19;20010;-78
2023/02/27 02:27:58;;;;;;;3.10;1.67;;;;;;;-5.11;100.00;99226.72;15300766;19;20007;-77
2023/02/27 02:33:55;;;;;;;2.65;1.70;;;;;;;-5.29;100.00;99235.13;15299171;19;20081;-77
2023/02/27 02:39:57;;;;;;;2.55;1.73;;;;;;;-5.40;100.00;99232.78;15300710;19;20014;-77
2023/02/27 02:45:30;;;;;;;2.28;1.60;;;;;;;-5.57;100.00;99231.44;15304150;19;20077;-78
2023/02/27 02:51:03;;;;;;;2.75;1.58;;;;;;;-5.63;100.00;99236.88;15297984;19;20043;-79
2023/02/27 02:56:43;;;;;;;1.85;1.40;;;;;;;-5.50;100.00;99239.16;15296299;19;20033;-78
2023/02/27 03:02:12;;;;;;;2.50;1.50;;;;;;;-5.44;100.00;99242.50;15305530;19;20053;-79
2023/02/27 03:08:06;;;;;;;3.40;1.50;;;;;;;-5.52;100.00;99240.97;15305013;19;20014;-79
2023/02/27 03:13:39;;;;;;;2.50;1.60;;;;;;;-5.63;100.00;99252.63;15355966;19;20014;-77
2023/02/27 03:19:09;;;;;;;4.00;2.10;;;;;;;-5.69;100.00;99257.16;15299823;19;20077;-78
2023/02/27 03:24:47;;;;;;;2.65;1.77;;;;;;;-5.77;100.00;99263.47;15291751;19;20011;-78
2023/02/27 03:30:21;;;;;;;2.28;1.58;;;;;;;-5.82;100.00;99251.38;15301377;19;20021;-78
2023/02/27 03:35:52;;;;;;;1.75;1.38;;;;;;;-5.85;100.00;99261.94;15287809;19;20032;-78
2023/02/27 03:41:27;;;;;;;3.40;1.52;;;;;;;-5.85;100.00;99264.56;15293114;19;20615;-77
2023/02/27 03:47:24;;;;;;;1.52;1.42;;;;;;;-5.85;100.00;99267.19;15296248;19;20042;-77
2023/02/27 03:52:49;;;;;;;3.10;1.77;;;;;;;-5.86;100.00;99273.31;15301621;19;20018;-78
2023/02/27 03:58:14;;;;;;;1.77;1.45;;;;;;;-5.84;100.00;99279.41;15301469;19;20477;-77
2023/02/27 04:03:51;;;;;;;2.08;1.50;;;;;;;-5.86;100.00;99286.44;15302065;19;20014;-78
2023/02/27 04:09:52;;;;;;;2.33;1.80;;;;;;;-5.88;100.00;99295.22;15341286;19;20003;-77
2023/02/27 04:15:28;;;;;;;3.58;1.60;;;;;;;-5.88;100.00;99300.47;15291547;19;20537;-77
2023/02/27 04:21:02;;;;;;;2.55;1.73;;;;;;;-5.81;100.00;99297.66;15286533;19;20028;-77
2023/02/27 04:26:32;;;;;;;1.92;1.58;;;;;;;-5.75;100.00;99302.78;15283032;19;20013;-76
2023/02/27 04:32:09;;;;;;;2.88;1.95;;;;;;;-5.67;100.00;99306.09;15294347;19;20477;-78
2023/02/27 04:37:45;;;;;;;2.67;1.70;;;;;;;-5.57;100.00;99309.34;15291566;19;20011;-79
2023/02/27 04:43:13;;;;;;;3.95;1.88;;;;;;;-5.50;100.00;99310.91;15291457;19;20027;-77
2023/02/27 04:48:45;;;;;;;2.55;1.70;;;;;;;-5.41;100.00;99320.34;15291263;19;20359;-78
2023/02/27 04:54:18;;;;;;;2.42;1.90;;;;;;;-5.30;100.00;99326.19;15284143;19;20002;-77
2023/02/27 04:59:48;;;;;;;2.20;1.70;;;;;;;-5.27;100.00;99328.72;15295414;19;20123;-75
2023/02/27 05:05:17;;;;;;;2.33;1.80;;;;;;;-5.27;100.00;99328.72;15292471;19;20010;-76
2023/02/27 05:10:51;;;;;;;3.08;1.77;;;;;;;-5.26;100.00;99327.84;15296079;19;20458;-75
2023/02/27 05:16:25;;;;;;;2.33;1.90;;;;;;;-5.19;100.00;99336.41;15294871;19;20019;-76
2023/02/27 05:22:03;;;;;;;2.20;1.85;;;;;;;-5.19;100.00;99338.16;15314799;19;20335;-77
2023/02/27 05:27:40;;;;;;;4.25;2.63;;;;;;;-5.22;100.00;99338.25;15319186;19;20327;-76
2023/02/27 05:33:10;;;;;;;3.45;2.17;;;;;;;-5.17;100.00;99346.88;15324078;19;20018;-76
2023/02/27 05:38:40;;;;;;;2.83;2.00;;;;;;;-5.13;100.00;99341.50;15326867;19;20061;-75
2023/02/27 05:44:12;;;;;;;3.53;2.10;;;;;;;-5.12;100.00;99348.47;15358965;19;20486;-76
2023/02/27 05:49:42;;;;;;;2.22;1.90;;;;;;;-5.05;100.00;99348.31;15315582;19;20031;-76
2023/02/27 05:55:12;;;;;;;3.70;2.00;;;;;;;-4.96;100.00;99364.72;15322584;19;20039;-78
2023/02/27 06:00:42;;;;;;;2.55;1.83;;;;;;;-4.89;100.00;99359.31;15326060;19;20027;-77
2023/02/27 06:06:10;;;;;;;2.70;1.60;;;;;;;-4.80;100.00;99359.91;15325220;19;20023;-77
2023/02/27 06:11:35;;;;;;;2.08;1.85;;;;;;;-4.75;100.00;99372.06;15326298;19;20054;-77
2023/02/27 06:17:02;;;;;;;2.13;1.60;;;;;;;-4.66;100.00;99370.06;15320290;19;20032;-77
2023/02/27 06:22:27;;;;;;;2.05;1.75;;;;;;;-4.55;100.00;99376.78;15325535;19;20019;-77
2023/02/27 06:27:51;;;;;;;3.10;1.90;;;;;;;-4.49;100.00;99380.13;15324214;19;20026;-79
2023/02/27 06:33:20;;;;;;;3.40;2.08;;;;;;;-4.44;100.00;99372.09;15311489;19;20021;-77
2023/02/27 06:38:44;;;;;;;4.22;2.60;;;;;;;-4.37;100.00;99389.41;15311969;19;20047;-75
2023/02/27 06:44:10;;;;;;;2.55;2.20;;;;;;;-4.35;100.00;99377.09;15308959;19;20639;-76
2023/02/27 06:49:38;;;;;;;2.92;2.20;;;;;;;-4.34;100.00;99377.94;15307000;19;20089;-78
2023/02/27 06:55:03;;;;;;;2.25;1.80;;;;;;;-4.29;100.00;99378.69;15306592;19;20022;-77
2023/02/27 07:00:28;;;;;;;3.00;2.25;;;;;;;-4.24;100.00;99383.81;15311662;19;20013;-78
2023/02/27 07:05:56;;;;;;;3.35;2.15;;;;;;;-4.23;100.00;99375.84;15305610;19;20082;-77
2023/02/27 07:11:20;;;;;;;5.30;2.10;;;;;;;-4.24;100.00;99394.31;15308824;19;20051;-78
2023/02/27 07:16:52;;;;;;;5.10;1.90;;;;;;;-4.26;100.00;99391.75;15307659;19;20066;-79
2023/02/27 07:22:26;;;;;;;2.88;1.92;;;;;;;-4.24;100.00;99394.31;15305873;19;20334;-77
2023/02/27 07:27:51;;;;;;;4.50;2.10;;;;;;;-4.16;100.00;99394.97;15301861;19;20609;-79
2023/02/27 07:33:17;;;;;;;3.42;2.22;;;;;;;-4.08;100.00;99397.38;15315328;19;20387;-78
2023/02/27 07:38:44;;;;;;;2.67;2.42;;;;;;;-4.04;100.00;99413.03;15311630;19;20015;-79
2023/02/27 07:44:09;;;;;;;2.63;2.05;;;;;;;-3.89;100.00;99421.38;15305704;19;20023;-79
2023/02/27 07:49:34;;;;;;;1.83;1.55;;;;;;;-3.64;100.00;99431.19;15305112;19;20022;-76
2023/02/27 07:55:01;;;;;;;2.55;1.50;;;;;;;-3.27;100.00;99411.59;15303143;19;20026;-78
2023/02/27 08:00:27;;;;;;;1.52;1.08;;;;;;;-3.03;100.00;99406.44;15315091;19;20039;-79
2023/02/27 08:05:51;;;;;;;1.95;1.40;;;;;;;-2.85;100.00;99403.16;15343148;19;20014;-78
2023/02/27 08:11:22;;;;;;;2.50;1.20;;;;;;;-2.70;100.00;99408.81;15298060;19;20022;-76
2023/02/27 08:16:46;;;;;;;2.35;1.35;;;;;;;-2.57;100.00;99419.81;15350922;19;20019;-80
2023/02/27 08:22:17;;;;;;;2.03;1.48;;;;;;;-2.49;100.00;99408.06;15288322;19;20014;-77
2023/02/27 08:27:45;;;;;;;3.42;1.67;;;;;;;-2.34;100.00;99411.94;15290955;19;20070;-76
2023/02/27 08:33:10;;;;;;;4.20;1.30;;;;;;;-2.22;100.00;99421.19;15295630;19;20011;-77
2023/02/27 08:38:35;;;;;;;2.90;1.50;;;;;;;-2.12;100.00;99420.84;15291750;19;20032;-78
2023/02/27 08:44:02;;;;;;;1.65;1.30;;;;;;;-2.03;100.00;99417.88;15292265;19;20026;-77
2023/02/27 08:49:27;;;;;;;3.33;1.60;;;;;;;-1.89;100.00;99428.78;15292351;19;20478;-78
2023/02/27 08:54:51;;;;;;;1.90;1.50;;;;;;;-1.72;100.00;99430.78;15289866;19;20026;-77
2023/02/27 09:00:20;;;;;;;2.70;1.50;;;;;;;-1.55;100.00;99432.78;15296188;19;20020;-78
2023/02/27 09:05:45;;;;;;;2.10;1.15;;;;;;;-1.40;100.00;99431.31;15282141;19;20029;-76
2023/02/27 09:11:09;;;;;;;1.70;1.25;;;;;;;-1.20;100.00;99428.78;15282400;19;20544;-77
2023/02/27 09:16:37;;;;;;;1.98;1.30;;;;;;;-1.10;100.00;99417.78;15286862;19;20086;-77
2023/02/27 09:22:07;;;;;;;1.83;1.35;;;;;;;-0.94;100.00;99422.44;15282348;19;20018;-75
2023/02/27 09:27:32;;;;;;;1.90;1.30;;;;;;;-0.76;100.00;99441.97;15286355;19;20094;-77
2023/02/27 09:33:00;;;;;;;1.20;1.02;;;;;;;-0.53;100.00;99438.34;15288854;19;20074;-76
2023/02/27 09:38:24;;;;;;;1.25;1.10;;;;;;;-0.30;100.00;99435.66;15289305;19;20078;-77
2023/02/27 09:43:55;;;;;;;1.52;1.08;;;;;;;-0.13;100.00;99435.75;15288223;19;20085;-76
2023/02/27 09:49:27;;;;;;;1.20;1.10;;;;;;;0.01;100.00;99443.06;15286107;19;20033;-76
2023/02/27 09:54:53;;;;;;;0.95;0.90;;;;;;;0.12;100.00;99448.72;15288830;19;20032;-75
2023/02/27 10:00:40;;;;;;;1.48;1.17;;;;;;;0.23;100.00;99448.25;15289790;19;20021;-76
2023/02/27 10:06:23;;;;;;;1.77;1.17;;;;;;;0.39;100.00;99442.25;15283345;19;20029;-78
2023/02/27 10:11:59;;;;;;;1.67;1.02;;;;;;;0.49;100.00;99438.25;15300432;19;20050;-76
2023/02/27 10:17:31;;;;;;;1.30;1.15;;;;;;;0.57;100.00;99452.00;15304770;19;20069;-78
2023/02/27 10:23:01;;;;;;;3.20;1.20;;;;;;;0.75;100.00;99454.72;15305571;19;20081;-78
2023/02/27 10:28:29;;;;;;;1.75;1.00;;;;;;;0.77;100.00;99439.56;15303963;19;20023;-76
2023/02/27 10:33:54;;;;;;;1.13;1.00;;;;;;;0.88;100.00;99449.66;15305061;19;20078;-78
2023/02/27 10:39:25;;;;;;;1.55;1.20;;;;;;;0.90;100.00;99453.94;15306992;19;20537;-77
2023/02/27 10:44:52;;;;;;;1.52;1.20;;;;;;;1.04;100.00;99455.06;15282836;19;20022;-77
2023/02/27 10:50:29;;;;;;;1.70;1.00;;;;;;;1.04;100.00;99455.06;15297497;19;20046;-77
2023/02/27 10:56:04;;;;;;;2.35;1.40;;;;;;;1.08;100.00;99448.69;15302530;19;20014;-76
2023/02/27 11:01:29;;;;;;;4.43;3.70;;;;;;;1.26;100.00;99451.34;15351599;19;20021;-78
2023/02/27 11:06:55;;;;;;;1.70;1.00;;;;;;;1.22;100.00;99448.88;15316603;19;20027;-76
2023/02/27 11:12:31;;;;;;;1.52;1.20;;;;;;;1.43;100.00;99443.41;15296476;19;20025;-78
2023/02/27 11:17:55;;;;;;;1.90;1.00;;;;;;;1.66;100.00;99436.06;15297558;19;20010;-78
2023/02/27 11:23:25;;;;;;;1.65;1.20;;;;;;;1.82;100.00;99436.13;15296997;19;20018;-78
2023/02/27 11:29:06;;;;;;;1.35;1.08;;;;;;;1.81;100.00;99424.63;15298410;19;20085;-78
2023/02/27 11:34:35;;;;;;;1.30;0.90;;;;;;;1.84;100.00;99419.13;15300706;19;20510;-77
2023/02/27 11:40:18;;;;;;;1.05;0.95;;;;;;;1.83;100.00;99413.91;15301046;19;20081;-79
2023/02/27 11:45:53;;;;;;;1.83;1.30;;;;;;;1.79;100.00;99415.88;15288333;19;20015;-77
2023/02/27 11:51:52;;;;;;;2.70;0.90;;;;;;;1.92;100.00;99417.91;15289248;19;20018;-77
2023/02/27 11:57:24;;;;;;;1.38;1.00;;;;;;;1.87;100.00;99409.28;15292735;19;20015;-77
2023/02/27 12:03:02;;;;;;;2.80;1.23;;;;;;;1.84;100.00;99412.97;15333810;19;20014;-77
2023/02/27 12:08:34;;;;;;;1.42;1.08;;;;;;;1.79;100.00;99407.91;15302108;19;20074;-78
2023/02/27 12:14:05;;;;;;;1.08;1.00;;;;;;;1.85;100.00;99406.72;15294209;19;20604;-77
2023/02/27 12:19:37;;;;;;;1.40;1.10;;;;;;;1.91;100.00;99405.53;15297671;19;20078;-78
2023/02/27 12:25:14;;;;;;;1.35;0.90;;;;;;;1.85;100.00;99394.28;15293026;19;20011;-77
2023/02/27 12:30:43;;;;;;;2.10;0.90;;;;;;;1.93;100.00;99399.19;15286796;19;20014;-77
2023/02/27 12:36:12;;;;;;;1.35;0.70;;;;;;;1.93;100.00;99401.00;15288600;19;20366;-78
2023/02/27 12:41:48;;;;;;;0.85;0.70;;;;;;;2.04;100.00;99403.06;15285192;19;20959;-77
2023/02/27 12:47:24;;;;;;;0.95;0.50;;;;;;;2.12;100.00;99399.06;15287692;19;20010;-76
2023/02/27 12:53:04;;;;;;;0.80;0.57;;;;;;;2.08;100.00;99396.66;15286629;19;20554;-78
2023/02/27 12:58:41;;;;;;;0.68;0.50;;;;;;;2.08;100.00;99408.13;15297547;19;20010;-78
2023/02/27 13:04:14;;;;;;;0.90;0.60;;;;;;;2.06;100.00;99412.66;15300329;19;20040;-80
2023/02/27 13:09:49;;;;;;;3.25;0.80;;;;;;;2.06;100.00;99401.19;15299505;19;20086;-78
2023/02/27 13:15:21;;;;;;;0.77;0.68;;;;;;;2.03;100.00;99402.22;15299969;19;20035;-76
2023/02/27 13:20:53;;;;;;;2.60;0.70;;;;;;;2.10;100.00;99414.22;15303473;19;20061;-77
2023/02/27 13:26:33;;;;;;;0.80;0.70;;;;;;;2.14;100.00;99407.81;15302410;19;20022;-77
2023/02/27 13:32:03;;;;;;;1.67;0.90;;;;;;;2.17;100.00;99414.75;15300285;19;20022;-77
2023/02/27 13:37:29;;;;;;;1.77;0.90;;;;;;;2.11;100.00;99412.44;15293409;19;20022;-78
2023/02/27 13:43:00;;;;;;;1.45;0.82;;;;;;;2.15;100.00;99406.00;15309620;19;20283;-77
2023/02/27 13:48:52;;;;;;;1.35;0.95;;;;;;;2.26;100.00;99410.75;15316374;19;20039;-77
2023/02/27 13:54:28;;;;;;;1.75;0.80;;;;;;;2.37;100.00;99407.47;15349121;19;20040;-75
2023/02/27 14:00:04;;;;;;;1.35;0.88;;;;;;;2.44;100.00;99416.84;15330738;19;20026;-78
2023/02/27 14:05:36;;;;;;;2.88;0.82;;;;;;;2.37;100.00;99419.00;14806484;19;9999823;-76
2023/02/27 14:11:08;;;;;;;1.38;0.90;;;;;;;2.17;100.00;99421.91;15303395;19;20021;-76
2023/02/27 14:17:02;;;;;;;0.88;0.82;;;;;;;2.25;100.00;99420.50;15312870;19;20059;-79
2023/02/27 14:22:47;;;;;;;0.77;0.68;;;;;;;2.33;100.00;99419.25;15308630;19;20478;-79
2023/02/27 14:28:23;;;;;;;2.00;0.85;;;;;;;2.26;100.00;99406.28;15306499;19;20481;-79
2023/02/27 14:33:55;;;;;;;1.13;0.70;;;;;;;2.12;100.00;99407.03;15311141;19;20014;-78
2023/02/27 14:39:27;;;;;;;1.20;0.90;;;;;;;1.98;100.00;99396.28;15308667;19;20022;-77
2023/02/27 14:44:55;;;;;;;1.05;0.90;;;;;;;1.92;100.00;99396.63;15302668;19;20782;-78
2023/02/27 14:50:36;;;;;;;1.42;0.90;;;;;;;1.84;100.00;99397.88;15309902;19;20018;-80
2023/02/27 14:56:05;;;;;;;1.83;0.83;;;;;;;1.83;100.00;99397.97;15306011;19;20035;-78
2023/02/27 15:01:35;;;;;;;2.53;0.90;;;;;;;1.74;100.00;99401.97;15304689;19;20063;-77
2023/02/27 15:07:04;;;;;;;2.20;1.10;;;;;;;1.65;100.00;99392.69;15308903;19;20014;-77
2023/02/27 15:12:30;;;;;;;2.35;0.80;;;;;;;1.54;100.00;99405.66;15298864;19;20014;-77
2023/02/27 15:17:56;;;;;;;1.95;0.90;;;;;;;1.43;100.00;99403.56;15306615;19;20019;-78
2023/02/27 15:23:26;;;;;;;1.15;0.90;;;;;;;1.39;100.00;99420.59;15309719;19;20031;-78
2023/02/27 15:28:52;;;;;;;1.90;0.95;;;;;;;1.42;100.00;99416.91;15307244;19;20046;-77
2023/02/27 15:34:17;;;;;;;2.50;1.00;;;;;;;1.44;100.00;99420.34;15304489;19;20018;-79
2023/02/27 15:39:45;;;;;;;3.05;0.90;;;;;;;1.43;100.00;99422.16;15305321;19;20011;-77
2023/02/27 15:45:18;;;;;;;2.08;0.95;;;;;;;1.42;100.00;99416.91;15306101;19;20044;-79
2023/02/27 15:50:46;;;;;;;1.85;0.90;;;;;;;1.38;100.00;99419.75;15304189;19;20031;-78
2023/02/27 15:56:16;;;;;;;1.67;0.80;;;;;;;1.26;100.00;99420.38;15260889;19;20014;-78
2023/02/27 16:01:42;;;;;;;2.55;0.60;;;;;;;1.16;100.00;99422.63;15310903;19;20103;-75
2023/02/27 16:07:13;;;;;;;1.63;0.70;;;;;;;1.02;100.00;99417.13;15311655;19;20026;-78
2023/02/27 16:12:45;;;;;;;1.75;0.60;;;;;;;0.95;100.00;99419.22;15296139;19;20392;-77
2023/02/27 16:18:30;;;;;;;0.80;0.60;;;;;;;0.76;100.00;99425.44;15297471;19;20026;-78
2023/02/27 16:23:55;;;;;;;0.90;0.70;;;;;;;0.69;100.00;99437.31;15298611;19;20442;-77
2023/02/27 16:29:25;;;;;;;3.55;1.60;;;;;;;0.58;100.00;99448.41;15302351;19;20038;-77
2023/02/27 16:34:49;;;;;;;5.38;3.35;;;;;;;0.47;100.00;99450.69;15302509;19;20018;-77
2023/02/27 16:40:17;;;;;;;2.30;1.50;;;;;;;0.35;100.00;99457.44;15305787;19;20014;-80
2023/02/27 16:45:44;;;;;;;1.00;0.70;;;;;;;0.27;100.00;99457.81;15294997;19;20022;-77
2023/02/27 16:51:16;;;;;;;2.58;1.00;;;;;;;0.14;100.00;99461.94;15332110;19;20011;-75
2023/02/27 16:56:41;;;;;;;1.98;0.80;;;;;;;0.07;100.00;99457.81;15319323;19;20038;-77
2023/02/27 17:02:12;;;;;;;1.15;0.80;;;;;;;0.04;100.00;99473.88;15297466;19;20497;-76
2023/02/27 17:07:37;;;;;;;2.35;0.85;;;;;;;-0.03;100.00;99487.38;15294997;19;20041;-77
2023/02/27 17:13:01;;;;;;;5.43;1.30;;;;;;;-0.21;100.00;99514.69;15292358;19;20035;-77
2023/02/27 17:18:29;;;;;;;2.67;1.08;;;;;;;-0.37;100.00;99512.69;15269931;19;20014;-77
2023/02/27 17:23:53;;;;;;;1.60;1.02;;;;;;;-0.47;100.00;99527.25;15296135;19;20015;-78
2023/02/27 17:29:18;;;;;;;2.15;1.00;;;;;;;-0.56;100.00;99528.47;15301194;19;20059;-76
2023/02/27 17:34:45;;;;;;;2.10;1.10;;;;;;;-0.61;100.00;99525.19;15300705;19;20129;-78
2023/02/27 17:40:11;;;;;;;4.13;1.15;;;;;;;-0.65;100.00;99539.44;15296567;19;20078;-78
2023/02/27 17:45:36;;;;;;;2.70;1.10;;;;;;;-0.69;100.00;99543.13;15294305;19;20094;-76
2023/02/27 17:51:03;;;;;;;2.50;1.17;;;;;;;-0.73;100.00;99544.19;15287594;19;20371;-77
2023/02/27 17:56:27;;;;;;;2.78;1.00;;;;;;;-0.72;100.00;99553.88;15295244;19;20027;-77
2023/02/27 18:01:53;;;;;;;3.60;1.17;;;;;;;-0.74;100.00;99563.66;15293854;19;20445;-76
2023/02/27 18:07:20;;;;;;;2.75;1.20;;;;;;;-0.79;100.00;99566.47;15285024;19;20022;-78
2023/02/27 18:12:46;;;;;;;2.63;1.30;;;;;;;-0.80;100.00;99567.41;15288422;19;20014;-74
2023/02/27 18:18:11;;;;;;;1.70;1.00;;;;;;;-0.85;100.00;99561.41;15288013;19;20366;-77
2023/02/27 18:23:39;;;;;;;2.38;1.33;;;;;;;-0.89;100.00;99567.78;15283532;19;20022;-77
2023/02/27 18:29:06;;;;;;;4.72;1.38;;;;;;;-0.93;100.00;99567.88;15304681;19;20370;-78
2023/02/27 18:34:32;;;;;;;2.35;1.17;;;;;;;-0.94;100.00;99565.28;15295025;19;20011;-77
2023/02/27 18:39:59;;;;;;;1.92;1.20;;;;;;;-0.91;100.00;99559.03;15297106;19;20084;-78
2023/02/27 18:45:18;;;;;;;3.05;1.27;;;;;;;-0.90;100.00;99560.75;15295994;19;20553;-77
2023/02/27 18:50:42;;;;;;;1.25;1.10;;;;;;;-0.93;100.00;99562.59;15294037;19;20039;-76
2023/02/27 18:56:11;;;;;;;1.55;1.20;;;;;;;-0.98;100.00;99553.97;15294199;19;20094;-77
2023/02/27 19:01:38;;;;;;;2.03;1.30;;;;;;;-1.04;100.00;99563.91;15292567;19;20070;-76
2023/02/27 19:07:03;;;;;;;1.67;1.25;;;;;;;-1.12;100.00;99557.16;15298457;19;20006;-75
2023/02/27 19:12:31;;;;;;;2.25;1.20;;;;;;;-1.19;100.00;99568.03;15303484;19;20131;-78
2023/02/27 19:17:56;;;;;;;2.58;1.33;;;;;;;-1.26;100.00;99560.34;15296735;19;20082;-77
2023/02/27 19:23:20;;;;;;;3.00;1.50;;;;;;;-1.26;100.00;99565.63;15308750;19;20812;-78
2023/02/27 19:28:47;;;;;;;4.07;1.52;;;;;;;-1.34;100.00;99559.75;15308991;19;20025;-78
2023/02/27 19:34:13;;;;;;;2.13;1.40;;;;;;;-1.34;100.00;99562.38;15317244;19;20006;-76
2023/02/27 19:39:38;;;;;;;2.92;1.60;;;;;;;-1.41;100.00;99560.91;15324577;19;20021;-77
2023/02/27 19:45:06;;;;;;;1.67;1.48;;;;;;;-1.46;100.00;99555.78;15292538;19;20053;-77
2023/02/27 19:50:33;;;;;;;2.42;1.50;;;;;;;-1.51;100.00;99564.81;15302021;19;20015;-78
2023/02/27 19:56:06;;;;;;;2.33;1.60;;;;;;;-1.59;100.00;99565.94;15298659;19;20775;-76
2023/02/27 20:01:35;;;;;;;2.00;1.50;;;;;;;-1.65;100.00;99563.53;15348393;19;20702;-78
2023/02/27 20:07:03;;;;;;;1.65;1.55;;;;;;;-1.72;100.00;99570.81;15301662;19;20078;-78
2023/02/27 20:12:32;;;;;;;3.15;1.60;;;;;;;-1.78;100.00;99572.81;15303956;19;20018;-79
2023/02/27 20:18:00;;;;;;;2.25;1.70;;;;;;;-1.79;100.00;99571.97;15307123;19;20017;-79
2023/02/27 20:23:26;;;;;;;1.73;1.45;;;;;;;-1.80;100.00;99570.25;15306821;19;20496;-78
2023/02/27 20:28:52;;;;;;;3.10;1.40;;;;;;;-1.82;100.00;99571.22;15304374;19;20078;-80
2023/02/27 20:34:24;;;;;;;1.92;1.63;;;;;;;-1.86;100.00;99566.03;15304321;19;20006;-81
2023/02/27 20:39:50;;;;;;;2.55;1.50;;;;;;;-1.86;100.00;99570.44;15302657;19;20497;-79
2023/02/27 20:45:16;;;;;;;2.80;1.80;;;;;;;-1.90;100.00;99564.41;15294382;19;20014;-79
2023/02/27 20:50:43;;;;;;;2.53;1.80;;;;;;;-1.91;100.00;99567.13;15297902;19;20025;-77
2023/02/27 20:56:09;;;;;;;2.78;2.17;;;;;;;-1.92;100.00;99566.25;15288692;19;20018;-78
2023/02/27 21:01:34;;;;;;;3.13;1.95;;;;;;;-1.97;100.00;99568.19;15290847;19;20440;-79
2023/02/27 21:07:01;;;;;;;2.70;1.73;;;;;;;-1.95;100.00;99563.72;15291872;19;20006;-78
2023/02/27 21:12:26;;;;;;;2.00;1.80;;;;;;;-1.92;100.00;99565.38;15292448;19;20031;-78
2023/02/27 21:17:50;;;;;;;2.08;1.90;;;;;;;-1.94;100.00;99568.06;15297489;19;20018;-78
2023/02/27 21:23:25;;;;;;;2.83;1.80;;;;;;;-1.95;100.00;99576.06;15294550;19;20010;-78
2023/02/27 21:28:52;;;;;;;2.28;1.80;;;;;;;-2.00;100.00;99573.56;15293104;19;20019;-78
2023/02/27 21:34:22;;;;;;;3.00;2.35;;;;;;;-2.08;100.00;99573.00;15296689;19;20031;-78
2023/02/27 21:39:53;;;;;;;3.15;2.20;;;;;;;-2.15;100.00;99576.72;15288937;19;20086;-78
2023/02/27 21:45:19;;;;;;;2.45;2.20;;;;;;;-2.28;100.00;99576.31;15291091;19;20491;-78
2023/02/27 21:50:44;;;;;;;3.92;2.20;;;;;;;-2.34;100.00;99580.00;15296306;19;20035;-78
2023/02/27 21:56:14;;;;;;;3.28;2.20;;;;;;;-2.41;100.00;99570.59;15286528;19;20010;-78
2023/02/27 22:01:39;;;;;;;2.70;1.92;;;;;;;-2.46;100.00;99577.78;15296969;19;20119;-78
2023/02/27 22:07:05;;;;;;;3.45;2.10;;;;;;;-2.52;100.00;99573.56;15313911;19;20088;-78
2023/02/27 22:12:32;;;;;;;3.03;2.38;;;;;;;-2.60;100.00;99572.97;15357637;19;20018;-78
2023/02/27 22:17:57;;;;;;;4.93;2.20;;;;;;;-2.66;100.00;99584.56;15302793;19;20015;-77
2023/02/27 22:23:30;;;;;;;2.50;2.30;;;;;;;-2.72;100.00;99584.75;15310195;19;20014;-78
2023/02/27 22:28:58;;;;;;;3.85;2.25;;;;;;;-2.77;100.00;99589.31;15312215;19;20025;-78
2023/02/27 22:34:24;;;;;;;5.03;2.60;;;;;;;-2.83;100.00;99593.88;15313256;19;20788;-79
2023/02/27 22:39:48;;;;;;;3.10;2.40;;;;;;;-2.85;100.00;99581.66;15310720;19;20082;-78
2023/02/27 22:45:17;;;;;;;2.97;2.50;;;;;;;-2.84;100.00;99592.13;15305993;19;20087;-78
2023/02/27 22:50:42;;;;;;;3.08;2.40;;;;;;;-2.87;100.00;99586.09;15313811;19;20025;-78
2023/02/27 22:56:07;;;;;;;4.82;2.78;;;;;;;-2.84;100.00;99591.28;15301285;19;20481;-78
2023/02/27 23:01:36;;;;;;;3.85;2.80;;;;;;;-2.79;100.00;99592.88;15306251;19;20016;-79
2023/02/27 23:07:03;;;;;;;4.82;2.88;;;;;;;-2.79;100.00;99600.78;15310002;19;20481;-79
2023/02/27 23:12:29;;;;;;;3.78;2.60;;;;;;;-2.77;100.00;99605.16;15311100;19;20665;-78
2023/02/27 23:17:57;;;;;;;4.07;2.63;;;;;;;-2.81;100.00;99607.00;15310887;19;20027;-80
2023/02/27 23:23:22;;;;;;;4.18;2.78;;;;;;;-2.81;100.00;99613.16;15313691;19;20022;-79
2023/02/27 23:28:47;;;;;;;3.47;2.72;;;;;;;-2.79;100.00;99608.69;15314684;19;20015;-80
2023/02/27 23:34:15;;;;;;;4.38;2.80;;;;;;;-2.76;100.00;99620.91;15302755;19;20020;-80
2023/02/27 23:39:39;;;;;;;4.90;2.80;;;;;;;-2.72;100.00;99616.41;15308386;19;20395;-80
2023/02/27 23:45:04;;;;;;;2.97;2.53;;;;;;;-2.70;100.00;99606.66;15309372;19;20015;-78
2023/02/27 23:50:33;;;;;;;4.07;2.80;;;;;;;-2.65;100.00;99615.31;15352335;19;20020;-80
2023/02/27 23:55:58;;;;;;;3.00;2.40;;;;;;;-2.62;100.00;99620.47;15305992;19;20027;-79
